Time;durP1;ratioP1;P1;durP2;ratioP2;P2;SDS_P1;SDS_P2;PMS_P1;PMS_P2;Temp;Humidity;BMP_temperature;BMP_pressure;BME280_temperature;BME280_humidity;BME280_pressure;Samples;Min_cycle;Max_cycle;Signal;HPM_P1;HPM_P2
2023/03/06 00:01:29;;;;;;;22.35;13.77;;;;;;;;;;5083177;28;20518;-57
2023/03/06 00:03:55;;;;;;;26.10;13.65;;;;;;;;;;5081752;28;20044;-57
2023/03/06 00:06:21;;;;;;;24.63;13.13;;;;;;;;;;5079012;28;20048;-57
2023/03/06 00:08:47;;;;;;;19.80;9.70;;;;;;;;;;5082706;28;20036;-57
2023/03/06 00:11:14;;;;;;;24.65;12.07;;;;;;;;;;5083377;28;20080;-57
2023/03/06 00:13:40;;;;;;;25.02;14.13;;;;;;;;;;5081330;28;20068;-57
2023/03/06 00:16:06;;;;;;;26.40;13.10;;;;;;;;;;5076790;28;20044;-57
2023/03/06 00:18:33;;;;;;;23.90;13.52;;;;;;;;;;5082993;28;20522;-57
2023/03/06 00:20:59;;;;;;;24.30;13.05;;;;;;;;;;5083274;28;20150;-57
2023/03/06 00:23:26;;;;;;;27.50;14.63;;;;;;;;;;5083075;28;20051;-57
2023/03/06 00:25:52;;;;;;;26.63;14.85;;;;;;;;;;5096788;27;20075;-57
2023/03/06 00:28:18;;;;;;;23.48;12.93;;;;;;;;;;5097377;27;20044;-57
2023/03/06 00:30:46;;;;;;;25.10;10.45;;;;;;;;;;5079612;28;20131;-57
2023/03/06 00:33:12;;;;;;;25.30;13.82;;;;;;;;;;5076052;28;20521;-57
2023/03/06 00:35:41;;;;;;;26.45;13.68;;;;;;;;;;5082036;28;20542;-57
2023/03/06 00:38:08;;;;;;;26.58;14.73;;;;;;;;;;5081516;28;20090;-57
2023/03/06 00:40:34;;;;;;;24.52;13.55;;;;;;;;;;5081105;28;20344;-57
2023/03/06 00:43:00;;;;;;;25.58;14.40;;;;;;;;;;5076042;28;20044;-57
2023/03/06 00:45:26;;;;;;;31.30;15.48;;;;;;;;;;5079706;28;20131;-57
2023/03/06 00:47:52;;;;;;;28.45;14.85;;;;;;;;;;5076770;28;20056;-57
2023/03/06 00:50:18;;;;;;;28.08;13.38;;;;;;;;;;5092671;27;20036;-57
2023/03/06 00:52:44;;;;;;;22.05;12.25;;;;;;;;;;5090428;27;20040;-57
2023/03/06 00:55:11;;;;;;;24.58;14.27;;;;;;;;;;5077758;28;20063;-57
2023/03/06 00:57:37;;;;;;;33.25;16.20;;;;;;;;;;5080651;27;20618;-57
2023/03/06 01:00:04;;;;;;;29.50;14.27;;;;;;;;;;5079705;28;20040;-57
2023/03/06 01:02:30;;;;;;;30.33;14.88;;;;;;;;;;5076557;28;20725;-57
2023/03/06 01:04:57;;;;;;;32.65;15.40;;;;;;;;;;5080102;28;20145;-57
2023/03/06 01:07:23;;;;;;;26.30;14.55;;;;;;;;;;5078002;28;20114;-57
2023/03/06 01:09:49;;;;;;;26.55;14.70;;;;;;;;;;5081065;27;20040;-57
2023/03/06 01:12:15;;;;;;;29.63;14.73;;;;;;;;;;5075559;28;20052;-57
2023/03/06 01:14:41;;;;;;;31.23;14.77;;;;;;;;;;5074627;28;20052;-57
2023/03/06 01:17:07;;;;;;;31.77;15.60;;;;;;;;;;5073844;28;20041;-57
2023/03/06 01:19:33;;;;;;;25.92;12.90;;;;;;;;;;5075948;28;20032;-57
2023/03/06 01:21:59;;;;;;;35.00;15.82;;;;;;;;;;5074923;28;20033;-57
2023/03/06 01:24:25;;;;;;;30.45;12.65;;;;;;;;;;5078451;28;20056;-57
2023/03/06 01:26:52;;;;;;;32.55;16.15;;;;;;;;;;5076983;28;20040;-57
2023/03/06 01:29:18;;;;;;;38.22;15.75;;;;;;;;;;5079750;28;20060;-57
2023/03/06 01:31:44;;;;;;;27.67;12.75;;;;;;;;;;5077893;28;20086;-57
2023/03/06 01:34:10;;;;;;;33.92;17.40;;;;;;;;;;5079359;28;20037;-57
2023/03/06 01:36:36;;;;;;;38.78;14.70;;;;;;;;;;5080549;28;20043;-57
2023/03/06 01:39:02;;;;;;;32.83;13.43;;;;;;;;;;5080144;28;20068;-57
2023/03/06 01:41:29;;;;;;;29.30;15.63;;;;;;;;;;5078719;28;20075;-57
2023/03/06 01:43:55;;;;;;;32.33;14.07;;;;;;;;;;5084151;28;20044;-58
2023/03/06 01:46:21;;;;;;;33.33;15.65;;;;;;;;;;5079614;28;20519;-58
2023/03/06 01:48:48;;;;;;;28.17;14.95;;;;;;;;;;5075656;28;20097;-58
2023/03/06 01:51:14;;;;;;;27.50;14.15;;;;;;;;;;5073607;28;20048;-58
2023/03/06 01:53:42;;;;;;;28.00;13.75;;;;;;;;;;5079255;28;20045;-58
2023/03/06 01:56:09;;;;;;;32.92;15.15;;;;;;;;;;5076244;28;20072;-58
2023/03/06 01:58:35;;;;;;;31.88;13.63;;;;;;;;;;5079350;28;20040;-58
2023/03/06 02:01:01;;;;;;;28.80;14.02;;;;;;;;;;5080730;27;20044;-57
2023/03/06 02:03:28;;;;;;;33.83;14.50;;;;;;;;;;5075910;28;20128;-58
2023/03/06 02:05:55;;;;;;;21.88;11.45;;;;;;;;;;5079653;28;20556;-58
2023/03/06 02:08:22;;;;;;;33.13;14.20;;;;;;;;;;5077711;28;20842;-58
2023/03/06 02:11:09;;;;;;;36.10;16.50;;;;;;;;;;5073480;28;20040;-57
2023/03/06 02:13:35;;;;;;;24.15;12.20;;;;;;;;;;5076060;27;20055;-57
2023/03/06 02:16:02;;;;;;;26.92;13.73;;;;;;;;;;5076702;28;20185;-57
2023/03/06 02:18:28;;;;;;;25.75;14.32;;;;;;;;;;5077939;28;20040;-58
2023/03/06 02:20:57;;;;;;;28.48;13.75;;;;;;;;;;5077040;28;20040;-57
2023/03/06 02:23:31;;;;;;;22.95;10.80;;;;;;;;;;5078094;28;20036;-58
2023/03/06 02:25:58;;;;;;;28.77;13.20;;;;;;;;;;5074456;28;20636;-57
2023/03/06 02:28:24;;;;;;;24.88;12.85;;;;;;;;;;5078617;28;20116;-58
2023/03/06 02:30:52;;;;;;;23.13;9.68;;;;;;;;;;5075459;28;20051;-58
2023/03/06 02:33:19;;;;;;;28.50;14.10;;;;;;;;;;5077287;28;20549;-58
2023/03/06 02:35:53;;;;;;;22.00;11.10;;;;;;;;;;5081364;28;20098;-58
2023/03/06 02:38:21;;;;;;;29.33;13.57;;;;;;;;;;5076818;28;20465;-57
2023/03/06 02:40:48;;;;;;;26.80;14.25;;;;;;;;;;5078765;28;20048;-57
2023/03/06 02:43:16;;;;;;;27.05;13.65;;;;;;;;;;5075961;28;20044;-58
2023/03/06 02:45:44;;;;;;;27.33;13.68;;;;;;;;;;5074497;28;20040;-57
2023/03/06 02:48:11;;;;;;;30.10;14.20;;;;;;;;;;5070867;28;20040;-57
2023/03/06 02:50:37;;;;;;;25.77;12.93;;;;;;;;;;5069065;28;20048;-57
2023/03/06 02:53:04;;;;;;;21.92;12.52;;;;;;;;;;5076700;28;20052;-57
2023/03/06 02:55:30;;;;;;;28.73;13.45;;;;;;;;;;5076170;28;20038;-58
2023/03/06 02:57:56;;;;;;;25.08;14.15;;;;;;;;;;5072752;28;20528;-58
2023/03/06 03:00:22;;;;;;;27.95;14.73;;;;;;;;;;5073740;28;21145;-57
2023/03/06 03:02:48;;;;;;;24.95;12.57;;;;;;;;;;5075976;28;20580;-57
2023/03/06 03:05:14;;;;;;;27.02;11.48;;;;;;;;;;5074445;28;20070;-58
2023/03/06 03:07:41;;;;;;;26.95;13.00;;;;;;;;;;5077833;28;20036;-58
2023/03/06 03:10:07;;;;;;;22.48;13.20;;;;;;;;;;5077601;28;20117;-57
2023/03/06 03:12:33;;;;;;;24.63;12.10;;;;;;;;;;5076694;27;20119;-58
2023/03/06 03:14:59;;;;;;;27.20;14.32;;;;;;;;;;5075185;28;20053;-58
2023/03/06 03:17:25;;;;;;;29.33;14.13;;;;;;;;;;5069833;28;20047;-58
2023/03/06 03:19:51;;;;;;;28.88;12.15;;;;;;;;;;5069186;28;20869;-58
2023/03/06 03:22:18;;;;;;;26.35;14.20;;;;;;;;;;5071315;28;20041;-58
2023/03/06 03:24:45;;;;;;;24.63;12.85;;;;;;;;;;5078890;28;20036;-57
2023/03/06 03:27:11;;;;;;;24.42;12.23;;;;;;;;;;5076180;28;20489;-57
2023/03/06 03:29:37;;;;;;;34.78;14.55;;;;;;;;;;5078358;28;20085;-57
2023/03/06 03:32:03;;;;;;;24.30;14.27;;;;;;;;;;5081564;28;20041;-57
2023/03/06 03:34:29;;;;;;;31.35;13.90;;;;;;;;;;5076581;28;20091;-57
2023/03/06 03:36:56;;;;;;;25.83;12.88;;;;;;;;;;5084712;28;20040;-57
2023/03/06 03:39:22;;;;;;;22.77;11.25;;;;;;;;;;5081826;28;20049;-58
2023/03/06 03:41:48;;;;;;;24.98;14.80;;;;;;;;;;5082873;28;20043;-58
2023/03/06 03:44:14;;;;;;;31.45;14.05;;;;;;;;;;5081669;28;20760;-57
2023/03/06 03:46:40;;;;;;;29.27;13.30;;;;;;;;;;5081412;28;20047;-57
2023/03/06 03:49:06;;;;;;;24.70;12.32;;;;;;;;;;5082731;28;20751;-57
2023/03/06 03:51:33;;;;;;;23.10;11.90;;;;;;;;;;5080353;28;20052;-57
2023/03/06 03:53:59;;;;;;;22.48;11.70;;;;;;;;;;5078217;28;20040;-57
2023/03/06 03:56:25;;;;;;;25.95;12.07;;;;;;;;;;5094198;27;20127;-58
2023/03/06 03:58:51;;;;;;;22.65;12.35;;;;;;;;;;5082916;28;20045;-57
2023/03/06 04:01:17;;;;;;;21.83;13.32;;;;;;;;;;5079880;28;20048;-58
2023/03/06 04:03:43;;;;;;;24.75;12.13;;;;;;;;;;5080120;28;20048;-57
2023/03/06 04:06:09;;;;;;;24.25;12.77;;;;;;;;;;5081758;28;20584;-57
2023/03/06 04:08:35;;;;;;;29.60;13.30;;;;;;;;;;5081018;28;20055;-57
2023/03/06 04:11:02;;;;;;;21.92;11.38;;;;;;;;;;5080822;28;20115;-58
2023/03/06 04:13:28;;;;;;;22.23;11.77;;;;;;;;;;5081229;28;20055;-57
2023/03/06 04:15:54;;;;;;;28.20;12.95;;;;;;;;;;5081203;28;20053;-57
2023/03/06 04:18:21;;;;;;;26.70;13.43;;;;;;;;;;5097609;27;20044;-58
2023/03/06 04:20:48;;;;;;;22.13;11.63;;;;;;;;;;5081452;28;20115;-57
2023/03/06 04:23:14;;;;;;;21.15;11.48;;;;;;;;;;5081612;27;20071;-57
2023/03/06 04:25:41;;;;;;;19.55;9.60;;;;;;;;;;5098040;27;20033;-57
2023/03/06 04:28:07;;;;;;;19.95;10.25;;;;;;;;;;5080459;28;21025;-57
2023/03/06 04:30:33;;;;;;;26.02;12.43;;;;;;;;;;5079306;28;20075;-57
2023/03/06 04:32:59;;;;;;;22.15;11.57;;;;;;;;;;5080199;28;20083;-57
2023/03/06 04:35:26;;;;;;;20.33;10.27;;;;;;;;;;5081467;28;20643;-57
2023/03/06 04:37:52;;;;;;;22.05;10.23;;;;;;;;;;5079860;28;20116;-57
2023/03/06 04:40:20;;;;;;;23.40;11.90;;;;;;;;;;5079084;28;20040;-57
2023/03/06 04:42:46;;;;;;;25.17;12.07;;;;;;;;;;5078740;28;20143;-57
2023/03/06 04:45:12;;;;;;;22.63;11.40;;;;;;;;;;5081618;28;20724;-57
2023/03/06 04:47:38;;;;;;;18.45;10.82;;;;;;;;;;5077571;28;20052;-57
2023/03/06 04:50:05;;;;;;;24.17;10.65;;;;;;;;;;5077233;28;20032;-57
2023/03/06 04:52:31;;;;;;;19.60;11.02;;;;;;;;;;5082602;28;20044;-57
2023/03/06 04:54:57;;;;;;;20.90;11.63;;;;;;;;;;5082390;28;20041;-57
2023/03/06 04:57:23;;;;;;;18.70;10.02;;;;;;;;;;5073323;28;20040;-58
2023/03/06 04:59:50;;;;;;;20.25;10.43;;;;;;;;;;5075442;28;20048;-57
2023/03/06 05:02:16;;;;;;;24.05;9.88;;;;;;;;;;5074721;28;20040;-57
2023/03/06 05:04:42;;;;;;;21.98;11.15;;;;;;;;;;5075150;28;20045;-58
2023/03/06 05:07:08;;;;;;;17.92;9.80;;;;;;;;;;5078965;28;20055;-58
2023/03/06 05:09:35;;;;;;;20.00;10.38;;;;;;;;;;5077526;28;20045;-57
2023/03/06 05:12:01;;;;;;;19.55;10.23;;;;;;;;;;5079045;28;20049;-57
2023/03/06 05:14:30;;;;;;;18.92;10.23;;;;;;;;;;5081147;28;20051;-58
2023/03/06 05:16:56;;;;;;;22.58;11.88;;;;;;;;;;5079582;28;20060;-57
2023/03/06 05:19:22;;;;;;;19.67;9.60;;;;;;;;;;5074762;28;20045;-57
2023/03/06 05:21:49;;;;;;;22.25;8.73;;;;;;;;;;5082309;27;20872;-57
2023/03/06 05:24:15;;;;;;;16.60;10.18;;;;;;;;;;5080941;28;20048;-57
2023/03/06 05:26:41;;;;;;;21.95;10.38;;;;;;;;;;5080931;28;20551;-57
2023/03/06 05:29:07;;;;;;;17.58;9.18;;;;;;;;;;5080247;28;20048;-57
2023/03/06 05:31:33;;;;;;;22.27;11.25;;;;;;;;;;5080405;28;20044;-57
2023/03/06 05:33:59;;;;;;;23.83;11.00;;;;;;;;;;5080639;28;20122;-57
2023/03/06 05:36:25;;;;;;;19.63;9.95;;;;;;;;;;5077210;28;20040;-58
2023/03/06 05:38:51;;;;;;;10.65;6.50;;;;;;;;;;5080256;28;20576;-57
2023/03/06 05:41:17;;;;;;;16.25;8.45;;;;;;;;;;5081554;28;20035;-57
2023/03/06 05:43:43;;;;;;;21.58;9.70;;;;;;;;;;5080469;28;20048;-57
2023/03/06 05:46:10;;;;;;;20.27;9.50;;;;;;;;;;5077795;28;20869;-58
2023/03/06 05:48:36;;;;;;;20.70;10.57;;;;;;;;;;5080400;28;20048;-57
2023/03/06 05:51:03;;;;;;;21.63;9.68;;;;;;;;;;5079339;28;20035;-57
2023/03/06 05:53:29;;;;;;;20.85;10.15;;;;;;;;;;5078530;28;20481;-57
2023/03/06 05:55:59;;;;;;;23.20;10.95;;;;;;;;;;5079683;28;20045;-57
2023/03/06 05:58:26;;;;;;;18.27;11.00;;;;;;;;;;5081243;28;20033;-57
2023/03/06 06:00:52;;;;;;;18.48;8.75;;;;;;;;;;5080031;28;20134;-57
2023/03/06 06:03:18;;;;;;;20.80;10.70;;;;;;;;;;5080320;28;20040;-57
2023/03/06 06:05:44;;;;;;;15.45;8.95;;;;;;;;;;5080786;28;20052;-58
2023/03/06 06:08:10;;;;;;;14.27;10.00;;;;;;;;;;5082127;28;20122;-57
2023/03/06 06:10:36;;;;;;;19.45;10.77;;;;;;;;;;5076388;28;20594;-57
2023/03/06 06:13:03;;;;;;;22.83;10.52;;;;;;;;;;5079821;28;20072;-57
2023/03/06 06:15:29;;;;;;;18.27;10.90;;;;;;;;;;5079624;28;20059;-58
2023/03/06 06:17:56;;;;;;;20.85;10.70;;;;;;;;;;5077956;27;20028;-57
2023/03/06 06:20:22;;;;;;;21.58;9.98;;;;;;;;;;5077559;28;20531;-57
2023/03/06 06:22:48;;;;;;;17.48;9.43;;;;;;;;;;5079734;28;20129;-57
2023/03/06 06:25:14;;;;;;;21.25;10.02;;;;;;;;;;5081259;28;20127;-57
2023/03/06 06:27:40;;;;;;;12.35;6.28;;;;;;;;;;5080213;28;20035;-57
2023/03/06 06:30:07;;;;;;;18.42;9.68;;;;;;;;;;5078960;28;20040;-57
2023/03/06 06:32:33;;;;;;;14.32;8.35;;;;;;;;;;5076585;28;20070;-57
2023/03/06 06:34:59;;;;;;;16.55;9.10;;;;;;;;;;5078045;28;20048;-57
2023/03/06 06:37:25;;;;;;;17.77;8.57;;;;;;;;;;5077187;28;20042;-57
2023/03/06 06:39:52;;;;;;;18.13;8.43;;;;;;;;;;5079823;28;20056;-57
2023/03/06 06:42:18;;;;;;;24.10;8.95;;;;;;;;;;5074595;28;22071;-57
2023/03/06 06:44:44;;;;;;;17.83;8.85;;;;;;;;;;5078254;28;20044;-57
2023/03/06 06:47:10;;;;;;;17.02;8.45;;;;;;;;;;5066089;28;20076;-57
2023/03/06 06:49:36;;;;;;;16.38;8.25;;;;;;;;;;5069393;27;20518;-57
2023/03/06 06:52:02;;;;;;;16.02;8.73;;;;;;;;;;5073094;28;20044;-57
2023/03/06 06:54:28;;;;;;;27.70;12.02;;;;;;;;;;5071865;28;20117;-57
2023/03/06 06:56:54;;;;;;;22.35;9.98;;;;;;;;;;5074672;28;20044;-57
2023/03/06 06:59:22;;;;;;;74.03;28.25;;;;;;;;;;5073991;27;20041;-57
2023/03/06 07:01:48;;;;;;;34.30;15.77;;;;;;;;;;5072467;28;20041;-57
2023/03/06 07:04:15;;;;;;;19.60;10.40;;;;;;;;;;5074622;28;20040;-57
2023/03/06 07:06:41;;;;;;;16.85;8.55;;;;;;;;;;5079374;28;20083;-57
2023/03/06 07:09:07;;;;;;;14.52;9.23;;;;;;;;;;5079385;28;20124;-58
2023/03/06 07:11:33;;;;;;;15.93;8.27;;;;;;;;;;5075103;27;20540;-57
2023/03/06 07:14:00;;;;;;;16.30;9.07;;;;;;;;;;5065892;28;20048;-58
2023/03/06 07:16:26;;;;;;;20.60;10.32;;;;;;;;;;5073220;28;20059;-57
2023/03/06 07:18:52;;;;;;;16.60;8.88;;;;;;;;;;5072873;28;20069;-58
2023/03/06 07:21:18;;;;;;;18.17;8.10;;;;;;;;;;5082666;28;20128;-57
2023/03/06 07:23:45;;;;;;;14.05;8.60;;;;;;;;;;5082950;28;20044;-57
2023/03/06 07:26:11;;;;;;;13.63;7.93;;;;;;;;;;5081242;28;20072;-57
2023/03/06 07:28:37;;;;;;;19.73;9.90;;;;;;;;;;5080823;28;20074;-58
2023/03/06 07:31:07;;;;;;;20.45;9.13;;;;;;;;;;5082960;28;20037;-57
2023/03/06 07:33:33;;;;;;;15.57;9.18;;;;;;;;;;5079297;28;20088;-57
2023/03/06 07:35:59;;;;;;;12.57;7.43;;;;;;;;;;5081697;28;20196;-57
2023/03/06 07:38:25;;;;;;;20.45;8.95;;;;;;;;;;5079670;28;20051;-57
2023/03/06 07:40:52;;;;;;;17.45;9.43;;;;;;;;;;5075486;28;20045;-58
2023/03/06 07:43:18;;;;;;;19.05;10.07;;;;;;;;;;5074234;28;20098;-57
2023/03/06 07:45:45;;;;;;;16.63;9.60;;;;;;;;;;5078889;28;20090;-58
2023/03/06 07:48:12;;;;;;;18.60;9.07;;;;;;;;;;5082320;28;20037;-58
2023/03/06 07:50:39;;;;;;;20.13;9.68;;;;;;;;;;5079285;28;20677;-58
2023/03/06 07:53:05;;;;;;;16.60;8.48;;;;;;;;;;5074918;28;20048;-58
2023/03/06 07:55:31;;;;;;;16.13;8.85;;;;;;;;;;5072272;28;20526;-58
2023/03/06 07:57:57;;;;;;;18.80;9.35;;;;;;;;;;5071707;28;20041;-58
2023/03/06 08:00:23;;;;;;;18.92;9.18;;;;;;;;;;5078377;28;20591;-58
2023/03/06 08:02:49;;;;;;;20.30;11.20;;;;;;;;;;5075896;28;20120;-59
2023/03/06 08:05:16;;;;;;;15.35;8.50;;;;;;;;;;5076607;28;20048;-58
2023/03/06 08:07:43;;;;;;;20.45;9.77;;;;;;;;;;5082658;27;20075;-58
2023/03/06 08:10:11;;;;;;;20.45;9.55;;;;;;;;;;5084746;28;20028;-58
2023/03/06 08:12:37;;;;;;;19.83;9.55;;;;;;;;;;5084390;28;20045;-58
2023/03/06 08:15:03;;;;;;;17.83;9.23;;;;;;;;;;5081709;28;20059;-58
2023/03/06 08:17:29;;;;;;;16.73;8.63;;;;;;;;;;5083101;28;20048;-58
2023/03/06 08:19:55;;;;;;;21.05;8.52;;;;;;;;;;5084186;28;20048;-58
2023/03/06 08:22:22;;;;;;;19.08;10.55;;;;;;;;;;5082530;28;20052;-58
2023/03/06 08:24:48;;;;;;;16.55;9.38;;;;;;;;;;5081749;28;20273;-58
2023/03/06 08:27:14;;;;;;;14.02;6.95;;;;;;;;;;5080688;28;21210;-58
2023/03/06 08:29:40;;;;;;;16.05;9.55;;;;;;;;;;5084580;28;20044;-58
2023/03/06 08:32:10;;;;;;;16.85;9.05;;;;;;;;;;5077749;28;20474;-58
2023/03/06 08:34:38;;;;;;;20.05;10.20;;;;;;;;;;5084323;28;20043;-58
2023/03/06 08:37:04;;;;;;;18.67;10.02;;;;;;;;;;5081159;28;20068;-58
2023/03/06 08:39:30;;;;;;;16.77;9.27;;;;;;;;;;5084168;28;20041;-58
2023/03/06 08:41:57;;;;;;;15.50;9.23;;;;;;;;;;5083803;28;20128;-58
2023/03/06 08:44:23;;;;;;;17.60;9.18;;;;;;;;;;5081571;28;20684;-58
2023/03/06 08:46:49;;;;;;;19.45;10.90;;;;;;;;;;5082731;28;20108;-58
2023/03/06 08:49:15;;;;;;;19.60;9.75;;;;;;;;;;5081117;28;20600;-58
2023/03/06 08:51:41;;;;;;;15.38;8.93;;;;;;;;;;5082611;28;20128;-58
2023/03/06 08:54:08;;;;;;;22.27;9.70;;;;;;;;;;5082336;28;20036;-58
2023/03/06 08:56:34;;;;;;;18.00;10.48;;;;;;;;;;5081766;28;20569;-58
2023/03/06 08:59:01;;;;;;;16.23;7.38;;;;;;;;;;5085060;28;20032;-58
2023/03/06 09:01:29;;;;;;;14.32;8.35;;;;;;;;;;5080870;28;20044;-58
2023/03/06 09:03:56;;;;;;;16.25;8.93;;;;;;;;;;5081887;28;20044;-58
2023/03/06 09:06:22;;;;;;;25.15;9.32;;;;;;;;;;5082408;28;20102;-58
2023/03/06 09:08:50;;;;;;;14.80;8.57;;;;;;;;;;5081065;28;20041;-58
2023/03/06 09:11:16;;;;;;;16.48;9.27;;;;;;;;;;5083619;28;20032;-58
2023/03/06 09:13:42;;;;;;;18.55;8.93;;;;;;;;;;5081582;28;20102;-58
2023/03/06 09:16:09;;;;;;;17.38;8.63;;;;;;;;;;5083939;28;20478;-58
2023/03/06 09:18:35;;;;;;;14.20;8.15;;;;;;;;;;5081890;27;20040;-58
2023/03/06 09:21:02;;;;;;;18.80;9.77;;;;;;;;;;5079932;28;20329;-58
2023/03/06 09:23:29;;;;;;;14.43;8.32;;;;;;;;;;5081293;28;20048;-58
2023/03/06 09:25:55;;;;;;;14.70;7.97;;;;;;;;;;5078371;28;20128;-58
2023/03/06 09:28:22;;;;;;;18.77;9.30;;;;;;;;;;5081356;27;20637;-58
2023/03/06 09:30:48;;;;;;;14.52;8.65;;;;;;;;;;5081627;28;20051;-58
2023/03/06 09:33:15;;;;;;;17.23;8.90;;;;;;;;;;5081694;28;20043;-58
2023/03/06 09:35:53;;;;;;;15.50;8.93;;;;;;;;;;5080525;28;20142;-58
2023/03/06 09:38:20;;;;;;;14.13;8.20;;;;;;;;;;5079830;28;20147;-58
2023/03/06 09:41:01;;;;;;;15.77;8.82;;;;;;;;;;5082407;28;20158;-58
2023/03/06 09:43:29;;;;;;;16.90;8.80;;;;;;;;;;5083493;28;20044;-58
2023/03/06 09:45:56;;;;;;;17.23;9.43;;;;;;;;;;5082964;28;20156;-58
2023/03/06 09:48:28;;;;;;;17.90;9.18;;;;;;;;;;5084199;28;20545;-58
2023/03/06 09:50:55;;;;;;;16.48;9.60;;;;;;;;;;5080205;28;20045;-58
2023/03/06 09:53:32;;;;;;;16.30;8.70;;;;;;;;;;5083395;28;20044;-59
2023/03/06 09:56:29;;;;;;;17.45;7.97;;;;;;;;;;5081266;28;20301;-58
2023/03/06 09:59:00;;;;;;;22.70;9.40;;;;;;;;;;5077538;28;20126;-58
2023/03/06 10:01:31;;;;;;;18.33;9.55;;;;;;;;;;5082082;28;21029;-58
2023/03/06 10:04:18;;;;;;;13.60;7.80;;;;;;;;;;5082158;28;20649;-58
2023/03/06 10:06:48;;;;;;;16.52;8.50;;;;;;;;;;5060088;28;20060;-58
2023/03/06 10:09:33;;;;;;;16.73;8.55;;;;;;;;;;5081799;28;20040;-58
2023/03/06 10:12:05;;;;;;;19.33;9.20;;;;;;;;;;5080586;28;20044;-58
2023/03/06 10:14:31;;;;;;;;;;;;;;;;;;5078857;28;20052;-58
2023/03/06 10:16:57;;;;;;;20.17;10.45;;;;;;;;;;5081258;28;19920;-58
2023/03/06 10:19:27;;;;;;;14.57;9.23;;;;;;;;;;5083314;28;20048;-58
2023/03/06 10:21:56;;;;;;;17.45;9.32;;;;;;;;;;5080749;28;20572;-58
2023/03/06 10:24:25;;;;;;;16.20;9.00;;;;;;;;;;5082002;28;20083;-58
2023/03/06 10:26:59;;;;;;;14.52;7.72;;;;;;;;;;5082562;28;20036;-58
2023/03/06 10:29:45;;;;;;;16.20;7.13;;;;;;;;;;5081742;27;20080;-58
2023/03/06 10:32:23;;;;;;;17.42;9.43;;;;;;;;;;5082111;28;20040;-58
2023/03/06 10:34:50;;;;;;;14.77;8.45;;;;;;;;;;5083681;28;20047;-59
2023/03/06 10:37:18;;;;;;;14.27;8.48;;;;;;;;;;5082976;28;20047;-58
2023/03/06 10:39:44;;;;;;;17.27;10.82;;;;;;;;;;5082724;28;20040;-58
2023/03/06 10:42:11;;;;;;;17.48;8.63;;;;;;;;;;5081257;28;20041;-58
2023/03/06 10:44:37;;;;;;;16.05;8.73;;;;;;;;;;5081928;27;20153;-58
2023/03/06 10:47:23;;;;;;;15.07;9.85;;;;;;;;;;5083602;27;20853;-58
2023/03/06 10:50:00;;;;;;;17.70;9.85;;;;;;;;;;5078045;27;20099;-58
2023/03/06 10:52:28;;;;;;;14.82;8.55;;;;;;;;;;5081424;27;20068;-58
2023/03/06 10:55:12;;;;;;;16.55;9.07;;;;;;;;;;5081478;28;20037;-58
2023/03/06 10:57:38;;;;;;;16.35;9.27;;;;;;;;;;5079019;28;20557;-58
2023/03/06 11:00:23;;;;;;;14.48;9.60;;;;;;;;;;5082672;28;20040;-58
2023/03/06 11:03:03;;;;;;;14.43;8.75;;;;;;;;;;5081823;28;20672;-58
2023/03/06 11:05:29;;;;;;;14.60;8.38;;;;;;;;;;5081350;28;20040;-58
2023/03/06 11:07:58;;;;;;;12.30;7.97;;;;;;;;;;5083121;28;20036;-58
2023/03/06 11:10:24;;;;;;;15.38;8.40;;;;;;;;;;5083017;28;20089;-58
2023/03/06 11:12:56;;;;;;;21.77;10.77;;;;;;;;;;5080349;28;20040;-58
2023/03/06 11:15:22;;;;;;;;;;;;;;;;;;5083624;28;20654;-58
2023/03/06 11:18:11;;;;;;;12.80;8.68;;;;;;;;;;5082643;28;19919;-58
2023/03/06 11:20:43;;;;;;;21.05;11.63;;;;;;;;;;5078752;28;20548;-58
2023/03/06 11:23:09;;;;;;;;;;;;;;;;;;5083315;28;20134;-58
2023/03/06 11:25:43;;;;;;;14.00;8.13;;;;;;;;;;5080745;28;19920;-58
2023/03/06 11:28:17;;;;;;;12.40;8.43;;;;;;;;;;5082235;28;20115;-58
2023/03/06 11:30:49;;;;;;;14.43;8.80;;;;;;;;;;5080212;28;20445;-58
2023/03/06 11:33:38;;;;;;;13.15;8.68;;;;;;;;;;5081053;28;20044;-58
2023/03/06 11:36:23;;;;;;;12.50;8.65;;;;;;;;;;5056527;28;20141;-58
2023/03/06 11:38:50;;;;;;;13.93;8.45;;;;;;;;;;5081445;28;20079;-58
2023/03/06 11:41:26;;;;;;;15.38;8.57;;;;;;;;;;5077729;28;20079;-58
2023/03/06 11:44:07;;;;;;;15.27;9.88;;;;;;;;;;5081559;28;20051;-58
2023/03/06 11:46:38;;;;;;;12.43;6.55;;;;;;;;;;5080414;28;20037;-58
2023/03/06 11:49:12;;;;;;;13.05;8.82;;;;;;;;;;5080451;28;20676;-58
2023/03/06 11:51:46;;;;;;;13.07;8.52;;;;;;;;;;5082681;28;20272;-58
2023/03/06 11:54:12;;;;;;;13.23;8.88;;;;;;;;;;5084422;28;20056;-59
2023/03/06 11:56:41;;;;;;;14.50;7.30;;;;;;;;;;5083581;28;20596;-58
2023/03/06 11:59:18;;;;;;;12.30;7.55;;;;;;;;;;5087457;28;20105;-58
2023/03/06 12:02:02;;;;;;;11.45;7.18;;;;;;;;;;5085099;28;20258;-58
2023/03/06 12:04:42;;;;;;;11.50;6.60;;;;;;;;;;5084113;27;20048;-58
2023/03/06 12:07:15;;;;;;;9.20;6.63;;;;;;;;;;5082626;28;20255;-58
2023/03/06 12:09:40;;;;;;;;;;;;;;;;;;5083560;28;20062;-58
2023/03/06 12:12:19;;;;;;;11.10;6.50;;;;;;;;;;5084972;28;19963;-58
2023/03/06 12:15:03;;;;;;;8.75;5.43;;;;;;;;;;5083777;28;20111;-57
2023/03/06 12:17:57;;;;;;;11.82;7.32;;;;;;;;;;5085319;28;20102;-57
2023/03/06 12:20:23;;;;;;;16.25;7.03;;;;;;;;;;5085625;28;20066;-57
2023/03/06 12:22:51;;;;;;;10.98;6.13;;;;;;;;;;5084785;28;20052;-58
2023/03/06 12:25:25;;;;;;;9.95;6.55;;;;;;;;;;5083216;28;20079;-57
2023/03/06 12:27:51;;;;;;;11.48;6.10;;;;;;;;;;5083689;28;20074;-57
2023/03/06 12:30:26;;;;;;;8.65;5.15;;;;;;;;;;5083561;28;20048;-57
2023/03/06 12:32:52;;;;;;;8.68;5.40;;;;;;;;;;5083828;28;20149;-57
2023/03/06 12:40:23;;;;;;;11.88;5.97;;;;;;;;;;5083088;28;41543;-57
2023/03/06 12:42:55;;;;;;;10.25;5.90;;;;;;;;;;5084787;28;20039;-57
2023/03/06 12:45:24;;;;;;;9.07;5.45;;;;;;;;;;5085094;28;20127;-57
2023/03/06 12:47:54;;;;;;;11.95;5.40;;;;;;;;;;5086507;28;20044;-57
2023/03/06 12:50:23;;;;;;;9.27;5.43;;;;;;;;;;5086332;28;20058;-58
2023/03/06 12:52:49;;;;;;;10.75;6.72;;;;;;;;;;5084759;28;20045;-56
2023/03/06 12:55:17;;;;;;;8.82;5.75;;;;;;;;;;5086955;28;20044;-57
2023/03/06 12:57:44;;;;;;;10.88;5.60;;;;;;;;;;5084479;28;20460;-57
2023/03/06 13:00:30;;;;;;;12.98;7.22;;;;;;;;;;5082466;28;20906;-57
2023/03/06 13:03:11;;;;;;;11.18;5.85;;;;;;;;;;5072055;28;20063;-57
2023/03/06 13:05:41;;;;;;;5.70;3.42;;;;;;;;;;5081651;28;20083;-57
2023/03/06 13:08:07;;;;;;;9.05;5.30;;;;;;;;;;5079161;28;20050;-57
2023/03/06 13:10:34;;;;;;;9.30;6.03;;;;;;;;;;5082930;28;20489;-57
2023/03/06 13:13:19;;;;;;;10.30;5.72;;;;;;;;;;5084849;28;20048;-57
2023/03/06 13:16:05;;;;;;;9.13;5.40;;;;;;;;;;5082117;28;20051;-57
2023/03/06 13:18:34;;;;;;;11.10;5.25;;;;;;;;;;5076612;28;20140;-57
2023/03/06 13:21:03;;;;;;;7.15;4.53;;;;;;;;;;5082965;28;20051;-57
2023/03/06 13:23:32;;;;;;;8.90;4.85;;;;;;;;;;5081498;28;20060;-57
2023/03/06 13:26:00;;;;;;;7.85;4.78;;;;;;;;;;5081644;28;20056;-57
2023/03/06 13:28:48;;;;;;;6.97;4.38;;;;;;;;;;5078139;28;20044;-57
2023/03/06 13:31:35;;;;;;;7.63;5.28;;;;;;;;;;5084410;28;20127;-57
2023/03/06 13:34:05;;;;;;;7.35;4.45;;;;;;;;;;5070955;28;20055;-57
2023/03/06 13:36:32;;;;;;;8.18;4.82;;;;;;;;;;5082548;28;20040;-57
2023/03/06 13:38:58;;;;;;;8.15;5.13;;;;;;;;;;5082466;28;20033;-57
2023/03/06 13:41:31;;;;;;;7.38;4.80;;;;;;;;;;5083623;28;20032;-57
2023/03/06 13:44:15;;;;;;;10.23;4.60;;;;;;;;;;5081063;28;20066;-57
2023/03/06 13:46:41;;;;;;;6.88;4.55;;;;;;;;;;5083598;28;20055;-57
2023/03/06 13:49:07;;;;;;;8.05;5.18;;;;;;;;;;5081005;28;20051;-57
2023/03/06 13:51:38;;;;;;;14.70;4.80;;;;;;;;;;5082992;28;20043;-57
2023/03/06 13:54:10;;;;;;;8.07;4.85;;;;;;;;;;5083159;28;20055;-57
2023/03/06 13:56:39;;;;;;;20.08;10.27;;;;;;;;;;5082620;27;20037;-57
2023/03/06 13:59:24;;;;;;;13.85;6.05;;;;;;;;;;5082395;28;20044;-57
2023/03/06 14:02:02;;;;;;;9.35;5.72;;;;;;;;;;5082169;28;20148;-57
2023/03/06 14:04:34;;;;;;;13.18;7.07;;;;;;;;;;5082573;28;20068;-57
2023/03/06 14:07:09;;;;;;;9.80;5.70;;;;;;;;;;5085263;28;20036;-57
2023/03/06 14:09:37;;;;;;;9.27;4.93;;;;;;;;;;5080300;28;20041;-57
2023/03/06 14:12:13;;;;;;;15.32;7.03;;;;;;;;;;5080991;28;20052;-57
2023/03/06 14:14:42;;;;;;;7.95;4.35;;;;;;;;;;5079658;28;20055;-57
2023/03/06 14:17:18;;;;;;;4.68;2.97;;;;;;;;;;5080745;28;20483;-57
2023/03/06 14:19:44;;;;;;;10.82;4.32;;;;;;;;;;5082609;28;20090;-57
2023/03/06 14:22:16;;;;;;;6.30;3.60;;;;;;;;;;5081281;28;20101;-57
2023/03/06 14:24:44;;;;;;;7.93;4.20;;;;;;;;;;5083669;28;20052;-57
2023/03/06 14:27:17;;;;;;;10.23;5.15;;;;;;;;;;5084151;28;20051;-57
2023/03/06 14:29:47;;;;;;;8.45;4.65;;;;;;;;;;5073612;28;20036;-57
2023/03/06 14:32:14;;;;;;;7.18;3.30;;;;;;;;;;5076223;28;20561;-57
2023/03/06 14:34:44;;;;;;;7.60;3.80;;;;;;;;;;5083070;28;20666;-57
2023/03/06 14:37:21;;;;;;;8.57;4.72;;;;;;;;;;5081030;28;20139;-57
2023/03/06 14:39:47;;;;;;;5.78;3.25;;;;;;;;;;5071977;28;20066;-57